sensor_id;sensor_type;location;lat;lon;timestamp;P1;durP1;ratioP1;P2;durP2;ratioP2
8871;SDS011;4472;52.092;9.820;2023-04-29T00:01:27;14.60;;;11.90;;
8871;SDS011;4472;52.092;9.820;2023-04-29T00:04:14;17.77;;;12.17;;
8871;SDS011;4472;52.092;9.820;2023-04-29T00:07:03;16.60;;;12.43;;
8871;SDS011;4472;52.092;9.820;2023-04-29T00:09:52;16.53;;;12.20;;
8871;SDS011;4472;52.092;9.820;2023-04-29T00:12:39;15.57;;;13.00;;
8871;SDS011;4472;52.092;9.820;2023-04-29T00:15:26;17.83;;;12.80;;
8871;SDS011;4472;52.092;9.820;2023-04-29T00:18:13;18.43;;;13.23;;
8871;SDS011;4472;52.092;9.820;2023-04-29T00:21:00;19.23;;;13.93;;
8871;SDS011;4472;52.092;9.820;2023-04-29T00:23:51;18.73;;;13.77;;
8871;SDS011;4472;52.092;9.820;2023-04-29T00:26:39;18.80;;;14.20;;
8871;SDS011;4472;52.092;9.820;2023-04-29T00:29:26;16.57;;;13.60;;
8871;SDS011;4472;52.092;9.820;2023-04-29T00:32:13;20.40;;;15.30;;
8871;SDS011;4472;52.092;9.820;2023-04-29T00:35:00;24.10;;;16.53;;
8871;SDS011;4472;52.092;9.820;2023-04-29T00:37:48;22.97;;;17.07;;
8871;SDS011;4472;52.092;9.820;2023-04-29T00:40:36;25.87;;;18.30;;
8871;SDS011;4472;52.092;9.820;2023-04-29T00:43:23;29.73;;;19.17;;
8871;SDS011;4472;52.092;9.820;2023-04-29T00:46:11;28.17;;;19.17;;
8871;SDS011;4472;52.092;9.820;2023-04-29T00:48:58;26.40;;;17.43;;
8871;SDS011;4472;52.092;9.820;2023-04-29T00:51:45;26.70;;;17.97;;
8871;SDS011;4472;52.092;9.820;2023-04-29T00:54:33;26.13;;;17.00;;
8871;SDS011;4472;52.092;9.820;2023-04-29T00:57:22;29.93;;;20.63;;
8871;SDS011;4472;52.092;9.820;2023-04-29T01:00:10;30.57;;;19.87;;
8871;SDS011;4472;52.092;9.820;2023-04-29T01:02:58;30.07;;;21.07;;
8871;SDS011;4472;52.092;9.820;2023-04-29T01:05:45;32.73;;;22.53;;
8871;SDS011;4472;52.092;9.820;2023-04-29T01:08:38;32.93;;;21.50;;
8871;SDS011;4472;52.092;9.820;2023-04-29T01:11:35;31.23;;;21.10;;
8871;SDS011;4472;52.092;9.820;2023-04-29T01:14:34;33.17;;;22.50;;
8871;SDS011;4472;52.092;9.820;2023-04-29T01:17:24;35.20;;;23.50;;
8871;SDS011;4472;52.092;9.820;2023-04-29T01:20:13;37.07;;;23.10;;
8871;SDS011;4472;52.092;9.820;2023-04-29T01:23:01;36.60;;;24.07;;
8871;SDS011;4472;52.092;9.820;2023-04-29T01:25:51;35.30;;;23.53;;
8871;SDS011;4472;52.092;9.820;2023-04-29T01:28:40;36.60;;;24.90;;
8871;SDS011;4472;52.092;9.820;2023-04-29T01:31:35;33.17;;;23.47;;
8871;SDS011;4472;52.092;9.820;2023-04-29T01:34:26;37.30;;;24.30;;
8871;SDS011;4472;52.092;9.820;2023-04-29T01:37:21;39.10;;;24.80;;
8871;SDS011;4472;52.092;9.820;2023-04-29T01:40:18;43.53;;;25.13;;
8871;SDS011;4472;52.092;9.820;2023-04-29T01:43:12;40.17;;;25.40;;
8871;SDS011;4472;52.092;9.820;2023-04-29T01:46:01;46.23;;;26.67;;
8871;SDS011;4472;52.092;9.820;2023-04-29T01:48:51;42.10;;;25.53;;
8871;SDS011;4472;52.092;9.820;2023-04-29T01:51:38;42.57;;;25.90;;
8871;SDS011;4472;52.092;9.820;2023-04-29T01:54:26;45.57;;;26.70;;
8871;SDS011;4472;52.092;9.820;2023-04-29T01:57:13;42.03;;;26.13;;
8871;SDS011;4472;52.092;9.820;2023-04-29T02:00:02;47.97;;;26.97;;
8871;SDS011;4472;52.092;9.820;2023-04-29T02:02:50;46.23;;;28.47;;
8871;SDS011;4472;52.092;9.820;2023-04-29T02:05:39;49.93;;;28.63;;
8871;SDS011;4472;52.092;9.820;2023-04-29T02:08:26;50.27;;;28.30;;
8871;SDS011;4472;52.092;9.820;2023-04-29T02:11:13;51.90;;;28.93;;
8871;SDS011;4472;52.092;9.820;2023-04-29T02:14:00;48.20;;;28.27;;
8871;SDS011;4472;52.092;9.820;2023-04-29T02:16:49;47.63;;;28.73;;
8871;SDS011;4472;52.092;9.820;2023-04-29T02:19:36;51.00;;;29.63;;
8871;SDS011;4472;52.092;9.820;2023-04-29T02:22:23;51.80;;;29.10;;
8871;SDS011;4472;52.092;9.820;2023-04-29T02:25:10;53.43;;;30.33;;
8871;SDS011;4472;52.092;9.820;2023-04-29T02:27:57;51.50;;;29.57;;
8871;SDS011;4472;52.092;9.820;2023-04-29T02:30:45;48.97;;;29.77;;
8871;SDS011;4472;52.092;9.820;2023-04-29T02:33:33;50.43;;;29.27;;
8871;SDS011;4472;52.092;9.820;2023-04-29T02:36:20;52.67;;;30.77;;
8871;SDS011;4472;52.092;9.820;2023-04-29T02:39:08;48.57;;;29.50;;
8871;SDS011;4472;52.092;9.820;2023-04-29T02:41:55;53.90;;;29.90;;
8871;SDS011;4472;52.092;9.820;2023-04-29T02:44:42;53.20;;;29.30;;
8871;SDS011;4472;52.092;9.820;2023-04-29T02:47:30;55.77;;;30.80;;
8871;SDS011;4472;52.092;9.820;2023-04-29T02:50:18;53.13;;;29.23;;
8871;SDS011;4472;52.092;9.820;2023-04-29T02:53:05;59.70;;;31.27;;
8871;SDS011;4472;52.092;9.820;2023-04-29T02:55:52;51.60;;;29.03;;
8871;SDS011;4472;52.092;9.820;2023-04-29T02:58:40;53.83;;;29.63;;
8871;SDS011;4472;52.092;9.820;2023-04-29T03:01:27;53.03;;;29.63;;
8871;SDS011;4472;52.092;9.820;2023-04-29T03:04:14;56.57;;;29.60;;
8871;SDS011;4472;52.092;9.820;2023-04-29T03:07:03;51.50;;;28.43;;
8871;SDS011;4472;52.092;9.820;2023-04-29T03:09:50;47.17;;;25.73;;
8871;SDS011;4472;52.092;9.820;2023-04-29T03:12:37;44.93;;;25.53;;
8871;SDS011;4472;52.092;9.820;2023-04-29T03:15:24;44.87;;;24.20;;
8871;SDS011;4472;52.092;9.820;2023-04-29T03:18:12;40.33;;;23.47;;
8871;SDS011;4472;52.092;9.820;2023-04-29T03:20:59;41.73;;;22.80;;
8871;SDS011;4472;52.092;9.820;2023-04-29T03:23:50;36.73;;;21.47;;
8871;SDS011;4472;52.092;9.820;2023-04-29T03:26:37;35.43;;;20.03;;
8871;SDS011;4472;52.092;9.820;2023-04-29T03:29:26;36.07;;;19.33;;
8871;SDS011;4472;52.092;9.820;2023-04-29T03:32:13;33.60;;;19.50;;
8871;SDS011;4472;52.092;9.820;2023-04-29T03:35:01;34.70;;;18.20;;
8871;SDS011;4472;52.092;9.820;2023-04-29T03:37:48;35.80;;;18.40;;
8871;SDS011;4472;52.092;9.820;2023-04-29T03:40:36;33.67;;;19.47;;
8871;SDS011;4472;52.092;9.820;2023-04-29T03:43:23;33.17;;;19.37;;
8871;SDS011;4472;52.092;9.820;2023-04-29T03:46:11;40.70;;;20.87;;
8871;SDS011;4472;52.092;9.820;2023-04-29T03:48:58;42.60;;;21.53;;
8871;SDS011;4472;52.092;9.820;2023-04-29T03:51:45;31.17;;;17.73;;
8871;SDS011;4472;52.092;9.820;2023-04-29T03:54:32;28.80;;;17.23;;
8871;SDS011;4472;52.092;9.820;2023-04-29T03:57:21;29.20;;;17.07;;
8871;SDS011;4472;52.092;9.820;2023-04-29T04:00:08;25.97;;;15.57;;
8871;SDS011;4472;52.092;9.820;2023-04-29T04:02:56;26.53;;;16.60;;
8871;SDS011;4472;52.092;9.820;2023-04-29T04:05:43;25.00;;;16.07;;
8871;SDS011;4472;52.092;9.820;2023-04-29T04:08:30;27.30;;;16.77;;
8871;SDS011;4472;52.092;9.820;2023-04-29T04:11:27;30.73;;;18.30;;
8871;SDS011;4472;52.092;9.820;2023-04-29T04:14:19;30.17;;;18.27;;
8871;SDS011;4472;52.092;9.820;2023-04-29T04:17:06;32.10;;;18.70;;
8871;SDS011;4472;52.092;9.820;2023-04-29T04:19:53;33.93;;;19.60;;
8871;SDS011;4472;52.092;9.820;2023-04-29T04:22:41;38.57;;;21.83;;
8871;SDS011;4472;52.092;9.820;2023-04-29T04:25:28;41.27;;;23.73;;
8871;SDS011;4472;52.092;9.820;2023-04-29T04:28:18;42.93;;;24.87;;
8871;SDS011;4472;52.092;9.820;2023-04-29T04:31:07;45.40;;;26.70;;
8871;SDS011;4472;52.092;9.820;2023-04-29T04:33:54;39.33;;;23.80;;
8871;SDS011;4472;52.092;9.820;2023-04-29T04:36:42;39.57;;;25.73;;
8871;SDS011;4472;52.092;9.820;2023-04-29T04:39:30;41.90;;;25.63;;
8871;SDS011;4472;52.092;9.820;2023-04-29T04:42:17;38.87;;;25.47;;
8871;SDS011;4472;52.092;9.820;2023-04-29T04:45:05;34.87;;;24.87;;
8871;SDS011;4472;52.092;9.820;2023-04-29T04:47:55;31.17;;;20.30;;
8871;SDS011;4472;52.092;9.820;2023-04-29T04:50:42;32.57;;;25.07;;
8871;SDS011;4472;52.092;9.820;2023-04-29T04:53:29;31.60;;;23.87;;
8871;SDS011;4472;52.092;9.820;2023-04-29T04:56:16;38.50;;;28.30;;
8871;SDS011;4472;52.092;9.820;2023-04-29T04:59:03;37.93;;;26.73;;
8871;SDS011;4472;52.092;9.820;2023-04-29T05:01:51;33.27;;;24.63;;
8871;SDS011;4472;52.092;9.820;2023-04-29T05:04:39;37.37;;;26.53;;
8871;SDS011;4472;52.092;9.820;2023-04-29T05:07:26;38.30;;;27.43;;
8871;SDS011;4472;52.092;9.820;2023-04-29T05:10:13;40.10;;;28.13;;
8871;SDS011;4472;52.092;9.820;2023-04-29T05:13:01;40.53;;;28.80;;
8871;SDS011;4472;52.092;9.820;2023-04-29T05:15:48;40.80;;;29.37;;
8871;SDS011;4472;52.092;9.820;2023-04-29T05:18:35;41.23;;;29.73;;
8871;SDS011;4472;52.092;9.820;2023-04-29T05:21:23;42.73;;;29.47;;
8871;SDS011;4472;52.092;9.820;2023-04-29T05:24:11;40.93;;;28.70;;
8871;SDS011;4472;52.092;9.820;2023-04-29T05:26:58;43.97;;;29.30;;
8871;SDS011;4472;52.092;9.820;2023-04-29T05:29:45;42.30;;;30.20;;
8871;SDS011;4472;52.092;9.820;2023-04-29T05:32:32;45.43;;;31.10;;
8871;SDS011;4472;52.092;9.820;2023-04-29T05:35:19;46.80;;;32.33;;
8871;SDS011;4472;52.092;9.820;2023-04-29T05:38:08;48.50;;;31.80;;
8871;SDS011;4472;52.092;9.820;2023-04-29T05:40:55;50.10;;;32.73;;
8871;SDS011;4472;52.092;9.820;2023-04-29T05:43:42;52.03;;;33.73;;
8871;SDS011;4472;52.092;9.820;2023-04-29T05:46:29;52.17;;;33.23;;
8871;SDS011;4472;52.092;9.820;2023-04-29T05:49:16;56.37;;;35.57;;
8871;SDS011;4472;52.092;9.820;2023-04-29T05:52:03;65.93;;;39.23;;
8871;SDS011;4472;52.092;9.820;2023-04-29T05:54:52;66.87;;;39.80;;
8871;SDS011;4472;52.092;9.820;2023-04-29T05:57:39;60.93;;;35.43;;
8871;SDS011;4472;52.092;9.820;2023-04-29T06:00:26;66.77;;;40.33;;
8871;SDS011;4472;52.092;9.820;2023-04-29T06:03:13;72.63;;;43.40;;
8871;SDS011;4472;52.092;9.820;2023-04-29T06:06:01;82.73;;;45.17;;
8871;SDS011;4472;52.092;9.820;2023-04-29T06:08:48;81.13;;;44.87;;
8871;SDS011;4472;52.092;9.820;2023-04-29T06:11:37;82.40;;;45.33;;
8871;SDS011;4472;52.092;9.820;2023-04-29T06:14:24;83.77;;;45.40;;
8871;SDS011;4472;52.092;9.820;2023-04-29T06:17:11;82.10;;;45.80;;
8871;SDS011;4472;52.092;9.820;2023-04-29T06:19:59;81.90;;;45.37;;
8871;SDS011;4472;52.092;9.820;2023-04-29T06:22:47;65.67;;;38.43;;
8871;SDS011;4472;52.092;9.820;2023-04-29T06:25:34;68.13;;;41.20;;
8871;SDS011;4472;52.092;9.820;2023-04-29T06:28:22;66.63;;;39.90;;
8871;SDS011;4472;52.092;9.820;2023-04-29T06:31:10;75.13;;;42.93;;
8871;SDS011;4472;52.092;9.820;2023-04-29T06:33:57;72.67;;;40.73;;
8871;SDS011;4472;52.092;9.820;2023-04-29T06:36:44;64.17;;;36.93;;
8871;SDS011;4472;52.092;9.820;2023-04-29T06:39:31;81.43;;;45.80;;
8871;SDS011;4472;52.092;9.820;2023-04-29T06:42:19;79.27;;;45.50;;
8871;SDS011;4472;52.092;9.820;2023-04-29T06:45:08;72.53;;;41.07;;
8871;SDS011;4472;52.092;9.820;2023-04-29T06:47:55;72.33;;;42.70;;
8871;SDS011;4472;52.092;9.820;2023-04-29T06:50:47;59.53;;;35.83;;
8871;SDS011;4472;52.092;9.820;2023-04-29T06:53:35;57.37;;;36.50;;
8871;SDS011;4472;52.092;9.820;2023-04-29T06:56:22;56.80;;;36.33;;
8871;SDS011;4472;52.092;9.820;2023-04-29T06:59:09;49.87;;;28.57;;
8871;SDS011;4472;52.092;9.820;2023-04-29T07:01:59;56.23;;;34.33;;
8871;SDS011;4472;52.092;9.820;2023-04-29T07:04:46;57.87;;;37.00;;
8871;SDS011;4472;52.092;9.820;2023-04-29T07:07:34;52.50;;;33.40;;
8871;SDS011;4472;52.092;9.820;2023-04-29T07:10:21;54.20;;;33.47;;
8871;SDS011;4472;52.092;9.820;2023-04-29T07:13:10;49.80;;;28.53;;
8871;SDS011;4472;52.092;9.820;2023-04-29T07:15:57;49.23;;;30.53;;
8871;SDS011;4472;52.092;9.820;2023-04-29T07:18:46;49.40;;;33.77;;
8871;SDS011;4472;52.092;9.820;2023-04-29T07:21:33;51.07;;;32.20;;
8871;SDS011;4472;52.092;9.820;2023-04-29T07:24:23;45.40;;;31.37;;
8871;SDS011;4472;52.092;9.820;2023-04-29T07:27:11;42.57;;;28.43;;
8871;SDS011;4472;52.092;9.820;2023-04-29T07:29:58;41.63;;;29.07;;
8871;SDS011;4472;52.092;9.820;2023-04-29T07:32:45;39.63;;;25.83;;
8871;SDS011;4472;52.092;9.820;2023-04-29T07:35:34;42.83;;;28.13;;
8871;SDS011;4472;52.092;9.820;2023-04-29T07:38:21;38.07;;;25.30;;
8871;SDS011;4472;52.092;9.820;2023-04-29T07:41:08;37.03;;;25.33;;
8871;SDS011;4472;52.092;9.820;2023-04-29T07:43:55;33.77;;;21.40;;
8871;SDS011;4472;52.092;9.820;2023-04-29T07:46:42;37.60;;;26.87;;
8871;SDS011;4472;52.092;9.820;2023-04-29T07:49:29;36.90;;;23.37;;
8871;SDS011;4472;52.092;9.820;2023-04-29T07:52:18;42.10;;;27.73;;
8871;SDS011;4472;52.092;9.820;2023-04-29T07:55:05;37.67;;;23.63;;
8871;SDS011;4472;52.092;9.820;2023-04-29T07:57:53;38.97;;;26.90;;
8871;SDS011;4472;52.092;9.820;2023-04-29T08:00:40;36.87;;;23.23;;
8871;SDS011;4472;52.092;9.820;2023-04-29T08:03:27;48.53;;;29.17;;
8871;SDS011;4472;52.092;9.820;2023-04-29T08:06:14;37.20;;;24.83;;
8871;SDS011;4472;52.092;9.820;2023-04-29T08:09:03;33.13;;;22.87;;
8871;SDS011;4472;52.092;9.820;2023-04-29T08:11:50;30.80;;;23.00;;
8871;SDS011;4472;52.092;9.820;2023-04-29T08:14:38;29.70;;;23.03;;
8871;SDS011;4472;52.092;9.820;2023-04-29T08:17:25;29.50;;;22.10;;
8871;SDS011;4472;52.092;9.820;2023-04-29T08:20:12;25.97;;;19.97;;
8871;SDS011;4472;52.092;9.820;2023-04-29T08:22:59;29.03;;;21.93;;
8871;SDS011;4472;52.092;9.820;2023-04-29T08:25:48;23.33;;;19.30;;
8871;SDS011;4472;52.092;9.820;2023-04-29T08:28:36;25.07;;;18.97;;
8871;SDS011;4472;52.092;9.820;2023-04-29T08:31:23;24.17;;;19.53;;
8871;SDS011;4472;52.092;9.820;2023-04-29T08:34:11;26.03;;;19.37;;
8871;SDS011;4472;52.092;9.820;2023-04-29T08:36:58;23.93;;;18.83;;
8871;SDS011;4472;52.092;9.820;2023-04-29T08:39:45;20.77;;;16.50;;
8871;SDS011;4472;52.092;9.820;2023-04-29T08:42:35;27.77;;;19.90;;
8871;SDS011;4472;52.092;9.820;2023-04-29T08:45:22;21.73;;;17.70;;
8871;SDS011;4472;52.092;9.820;2023-04-29T08:48:10;19.63;;;16.10;;
8871;SDS011;4472;52.092;9.820;2023-04-29T08:50:58;16.77;;;14.97;;
8871;SDS011;4472;52.092;9.820;2023-04-29T08:53:46;17.20;;;14.20;;
8871;SDS011;4472;52.092;9.820;2023-04-29T08:56:33;17.93;;;14.90;;
8871;SDS011;4472;52.092;9.820;2023-04-29T08:59:22;19.87;;;15.33;;
8871;SDS011;4472;52.092;9.820;2023-04-29T09:02:12;19.83;;;13.87;;
8871;SDS011;4472;52.092;9.820;2023-04-29T09:05:03;15.47;;;13.73;;
8871;SDS011;4472;52.092;9.820;2023-04-29T09:07:51;13.73;;;12.17;;
8871;SDS011;4472;52.092;9.820;2023-04-29T09:10:40;14.17;;;12.03;;
8871;SDS011;4472;52.092;9.820;2023-04-29T09:13:28;15.17;;;13.40;;
8871;SDS011;4472;52.092;9.820;2023-04-29T09:16:17;15.23;;;12.70;;
8871;SDS011;4472;52.092;9.820;2023-04-29T09:19:04;14.43;;;12.93;;
8871;SDS011;4472;52.092;9.820;2023-04-29T09:21:53;14.73;;;12.73;;
8871;SDS011;4472;52.092;9.820;2023-04-29T09:24:41;15.87;;;12.00;;
8871;SDS011;4472;52.092;9.820;2023-04-29T09:27:29;13.97;;;12.17;;
8871;SDS011;4472;52.092;9.820;2023-04-29T09:30:19;14.27;;;11.83;;
8871;SDS011;4472;52.092;9.820;2023-04-29T09:33:08;12.17;;;9.57;;
8871;SDS011;4472;52.092;9.820;2023-04-29T09:35:57;12.90;;;10.50;;
8871;SDS011;4472;52.092;9.820;2023-04-29T09:38:52;14.57;;;10.97;;
8871;SDS011;4472;52.092;9.820;2023-04-29T09:41:40;15.03;;;11.80;;
8871;SDS011;4472;52.092;9.820;2023-04-29T09:44:42;14.20;;;11.80;;
8871;SDS011;4472;52.092;9.820;2023-04-29T09:47:29;14.27;;;10.97;;
8871;SDS011;4472;52.092;9.820;2023-04-29T09:50:18;12.93;;;10.33;;
8871;SDS011;4472;52.092;9.820;2023-04-29T09:53:06;10.97;;;9.47;;
8871;SDS011;4472;52.092;9.820;2023-04-29T09:55:57;11.70;;;10.00;;
8871;SDS011;4472;52.092;9.820;2023-04-29T09:58:45;13.40;;;10.60;;
8871;SDS011;4472;52.092;9.820;2023-04-29T10:01:32;12.30;;;10.43;;
8871;SDS011;4472;52.092;9.820;2023-04-29T10:04:21;11.00;;;9.03;;
8871;SDS011;4472;52.092;9.820;2023-04-29T10:07:10;11.37;;;9.37;;
8871;SDS011;4472;52.092;9.820;2023-04-29T10:10:00;10.63;;;9.07;;
8871;SDS011;4472;52.092;9.820;2023-04-29T10:12:50;10.20;;;8.20;;
8871;SDS011;4472;52.092;9.820;2023-04-29T10:15:40;13.70;;;10.17;;
8871;SDS011;4472;52.092;9.820;2023-04-29T10:18:33;13.20;;;9.30;;
8871;SDS011;4472;52.092;9.820;2023-04-29T10:21:23;11.97;;;9.13;;
8871;SDS011;4472;52.092;9.820;2023-04-29T10:24:14;12.20;;;9.37;;
8871;SDS011;4472;52.092;9.820;2023-04-29T10:27:04;15.47;;;10.60;;
8871;SDS011;4472;52.092;9.820;2023-04-29T10:29:53;11.73;;;9.60;;
8871;SDS011;4472;52.092;9.820;2023-04-29T10:32:41;12.03;;;7.73;;
8871;SDS011;4472;52.092;9.820;2023-04-29T10:35:28;14.53;;;9.97;;
8871;SDS011;4472;52.092;9.820;2023-04-29T10:38:27;11.83;;;9.13;;
8871;SDS011;4472;52.092;9.820;2023-04-29T10:41:18;13.50;;;10.20;;
8871;SDS011;4472;52.092;9.820;2023-04-29T10:44:09;12.40;;;10.67;;
8871;SDS011;4472;52.092;9.820;2023-04-29T10:50:06;11.80;;;9.87;;
8871;SDS011;4472;52.092;9.820;2023-04-29T10:52:53;12.90;;;9.63;;
8871;SDS011;4472;52.092;9.820;2023-04-29T10:55:44;13.93;;;10.63;;
8871;SDS011;4472;52.092;9.820;2023-04-29T10:58:38;13.57;;;9.33;;
8871;SDS011;4472;52.092;9.820;2023-04-29T11:01:39;13.73;;;10.87;;
8871;SDS011;4472;52.092;9.820;2023-04-29T11:04:27;17.33;;;11.53;;
8871;SDS011;4472;52.092;9.820;2023-04-29T11:07:25;16.33;;;11.60;;
8871;SDS011;4472;52.092;9.820;2023-04-29T11:10:13;15.73;;;12.33;;
8871;SDS011;4472;52.092;9.820;2023-04-29T11:13:19;19.37;;;14.87;;
8871;SDS011;4472;52.092;9.820;2023-04-29T11:16:09;18.93;;;12.47;;
8871;SDS011;4472;52.092;9.820;2023-04-29T11:19:03;18.40;;;14.13;;
8871;SDS011;4472;52.092;9.820;2023-04-29T11:22:02;19.10;;;12.30;;
8871;SDS011;4472;52.092;9.820;2023-04-29T11:24:51;14.30;;;11.40;;
8871;SDS011;4472;52.092;9.820;2023-04-29T11:27:39;16.50;;;11.30;;
8871;SDS011;4472;52.092;9.820;2023-04-29T11:30:27;15.37;;;12.20;;
8871;SDS011;4472;52.092;9.820;2023-04-29T11:33:17;18.10;;;11.77;;
8871;SDS011;4472;52.092;9.820;2023-04-29T11:36:05;15.77;;;11.97;;
8871;SDS011;4472;52.092;9.820;2023-04-29T11:38:53;15.00;;;12.27;;
8871;SDS011;4472;52.092;9.820;2023-04-29T11:41:41;15.20;;;12.00;;
8871;SDS011;4472;52.092;9.820;2023-04-29T11:44:28;14.30;;;12.80;;
8871;SDS011;4472;52.092;9.820;2023-04-29T11:47:16;17.10;;;12.60;;
8871;SDS011;4472;52.092;9.820;2023-04-29T11:50:05;13.37;;;11.33;;
8871;SDS011;4472;52.092;9.820;2023-04-29T11:52:54;14.03;;;11.83;;
8871;SDS011;4472;52.092;9.820;2023-04-29T11:55:44;12.67;;;11.17;;
8871;SDS011;4472;52.092;9.820;2023-04-29T11:58:31;11.50;;;10.23;;
8871;SDS011;4472;52.092;9.820;2023-04-29T12:01:19;11.77;;;9.33;;
8871;SDS011;4472;52.092;9.820;2023-04-29T12:04:06;12.33;;;9.77;;
8871;SDS011;4472;52.092;9.820;2023-04-29T12:06:57;12.43;;;9.40;;
8871;SDS011;4472;52.092;9.820;2023-04-29T12:09:44;14.07;;;10.80;;
8871;SDS011;4472;52.092;9.820;2023-04-29T12:12:32;13.40;;;10.37;;
8871;SDS011;4472;52.092;9.820;2023-04-29T12:15:20;14.73;;;11.50;;
8871;SDS011;4472;52.092;9.820;2023-04-29T12:18:08;15.07;;;12.20;;
8871;SDS011;4472;52.092;9.820;2023-04-29T12:20:55;15.03;;;12.00;;
8871;SDS011;4472;52.092;9.820;2023-04-29T12:23:44;17.00;;;11.63;;
8871;SDS011;4472;52.092;9.820;2023-04-29T12:26:31;13.30;;;11.90;;
8871;SDS011;4472;52.092;9.820;2023-04-29T12:29:20;14.67;;;12.60;;
8871;SDS011;4472;52.092;9.820;2023-04-29T12:32:11;14.03;;;11.43;;
8871;SDS011;4472;52.092;9.820;2023-04-29T12:34:58;14.97;;;11.37;;
8871;SDS011;4472;52.092;9.820;2023-04-29T12:37:46;12.47;;;10.30;;
8871;SDS011;4472;52.092;9.820;2023-04-29T12:40:36;13.40;;;9.87;;
8871;SDS011;4472;52.092;9.820;2023-04-29T12:43:26;11.10;;;9.57;;
8871;SDS011;4472;52.092;9.820;2023-04-29T12:46:14;12.30;;;8.60;;
8871;SDS011;4472;52.092;9.820;2023-04-29T12:49:01;11.93;;;8.80;;
8871;SDS011;4472;52.092;9.820;2023-04-29T12:51:49;10.57;;;8.53;;
8871;SDS011;4472;52.092;9.820;2023-04-29T12:54:36;10.50;;;8.53;;
8871;SDS011;4472;52.092;9.820;2023-04-29T12:57:28;10.00;;;8.90;;
8871;SDS011;4472;52.092;9.820;2023-04-29T13:00:15;11.10;;;8.57;;
8871;SDS011;4472;52.092;9.820;2023-04-29T13:03:04;13.23;;;9.80;;
8871;SDS011;4472;52.092;9.820;2023-04-29T13:05:52;12.70;;;8.97;;
8871;SDS011;4472;52.092;9.820;2023-04-29T13:08:40;12.10;;;10.00;;
8871;SDS011;4472;52.092;9.820;2023-04-29T13:11:27;11.17;;;9.93;;
8871;SDS011;4472;52.092;9.820;2023-04-29T13:14:17;11.53;;;9.50;;
8871;SDS011;4472;52.092;9.820;2023-04-29T13:17:04;12.87;;;9.67;;
8871;SDS011;4472;52.092;9.820;2023-04-29T13:19:52;13.40;;;9.30;;
8871;SDS011;4472;52.092;9.820;2023-04-29T13:22:39;10.50;;;9.40;;
8871;SDS011;4472;52.092;9.820;2023-04-29T13:25:27;9.97;;;8.80;;
8871;SDS011;4472;52.092;9.820;2023-04-29T13:28:15;11.30;;;8.63;;
8871;SDS011;4472;52.092;9.820;2023-04-29T13:31:04;11.67;;;9.40;;
8871;SDS011;4472;52.092;9.820;2023-04-29T13:33:51;13.93;;;8.97;;
8871;SDS011;4472;52.092;9.820;2023-04-29T13:36:39;10.73;;;8.90;;
8871;SDS011;4472;52.092;9.820;2023-04-29T13:39:27;11.33;;;8.73;;
8871;SDS011;4472;52.092;9.820;2023-04-29T13:42:14;13.43;;;9.03;;
8871;SDS011;4472;52.092;9.820;2023-04-29T13:45:02;11.50;;;9.20;;
8871;SDS011;4472;52.092;9.820;2023-04-29T13:47:50;12.67;;;8.80;;
8871;SDS011;4472;52.092;9.820;2023-04-29T13:50:38;10.93;;;7.87;;
8871;SDS011;4472;52.092;9.820;2023-04-29T13:53:25;9.80;;;7.23;;
8871;SDS011;4472;52.092;9.820;2023-04-29T13:56:13;10.10;;;7.97;;
8871;SDS011;4472;52.092;9.820;2023-04-29T13:59:00;11.17;;;7.63;;
8871;SDS011;4472;52.092;9.820;2023-04-29T14:01:48;11.73;;;7.07;;
8871;SDS011;4472;52.092;9.820;2023-04-29T14:04:37;10.83;;;7.77;;
8871;SDS011;4472;52.092;9.820;2023-04-29T14:07:24;8.27;;;7.30;;
8871;SDS011;4472;52.092;9.820;2023-04-29T14:10:12;10.10;;;8.20;;
8871;SDS011;4472;52.092;9.820;2023-04-29T14:13:00;8.83;;;7.50;;
8871;SDS011;4472;52.092;9.820;2023-04-29T14:15:47;10.80;;;8.27;;
8871;SDS011;4472;52.092;9.820;2023-04-29T14:18:35;9.97;;;8.23;;
8871;SDS011;4472;52.092;9.820;2023-04-29T14:21:24;12.47;;;8.17;;
8871;SDS011;4472;52.092;9.820;2023-04-29T14:24:11;10.83;;;8.13;;
8871;SDS011;4472;52.092;9.820;2023-04-29T14:26:59;8.87;;;7.97;;
8871;SDS011;4472;52.092;9.820;2023-04-29T14:29:47;10.23;;;8.20;;
8871;SDS011;4472;52.092;9.820;2023-04-29T14:32:35;9.20;;;6.67;;
8871;SDS011;4472;52.092;9.820;2023-04-29T14:35:22;9.40;;;7.07;;
8871;SDS011;4472;52.092;9.820;2023-04-29T14:38:11;8.80;;;6.80;;
8871;SDS011;4472;52.092;9.820;2023-04-29T14:40:58;9.83;;;6.57;;
8871;SDS011;4472;52.092;9.820;2023-04-29T14:43:46;9.03;;;6.70;;
8871;SDS011;4472;52.092;9.820;2023-04-29T14:46:33;7.97;;;7.13;;
8871;SDS011;4472;52.092;9.820;2023-04-29T14:49:21;10.30;;;7.40;;
8871;SDS011;4472;52.092;9.820;2023-04-29T14:52:08;11.73;;;7.80;;
8871;SDS011;4472;52.092;9.820;2023-04-29T14:54:57;8.60;;;7.70;;
8871;SDS011;4472;52.092;9.820;2023-04-29T14:57:44;11.07;;;8.00;;
8871;SDS011;4472;52.092;9.820;2023-04-29T15:00:32;10.00;;;7.13;;
8871;SDS011;4472;52.092;9.820;2023-04-29T15:03:19;9.40;;;7.70;;
8871;SDS011;4472;52.092;9.820;2023-04-29T15:06:07;9.20;;;7.70;;
8871;SDS011;4472;52.092;9.820;2023-04-29T15:08:54;11.43;;;7.80;;
8871;SDS011;4472;52.092;9.820;2023-04-29T15:11:43;12.90;;;8.30;;
8871;SDS011;4472;52.092;9.820;2023-04-29T15:14:30;11.77;;;8.80;;
8871;SDS011;4472;52.092;9.820;2023-04-29T15:17:19;8.60;;;7.80;;
8871;SDS011;4472;52.092;9.820;2023-04-29T15:20:07;12.57;;;8.13;;
8871;SDS011;4472;52.092;9.820;2023-04-29T15:22:54;9.27;;;8.27;;
8871;SDS011;4472;52.092;9.820;2023-04-29T15:25:42;11.07;;;8.63;;
8871;SDS011;4472;52.092;9.820;2023-04-29T15:28:30;10.30;;;8.90;;
8871;SDS011;4472;52.092;9.820;2023-04-29T15:31:18;9.03;;;8.10;;
8871;SDS011;4472;52.092;9.820;2023-04-29T15:34:05;11.80;;;9.13;;
8871;SDS011;4472;52.092;9.820;2023-04-29T15:36:53;11.30;;;9.70;;
8871;SDS011;4472;52.092;9.820;2023-04-29T15:39:40;25.00;;;15.60;;
8871;SDS011;4472;52.092;9.820;2023-04-29T15:42:28;13.53;;;10.37;;
8871;SDS011;4472;52.092;9.820;2023-04-29T15:45:17;12.70;;;9.60;;
8871;SDS011;4472;52.092;9.820;2023-04-29T15:48:04;10.77;;;9.10;;
8871;SDS011;4472;52.092;9.820;2023-04-29T15:50:52;10.27;;;8.17;;
8871;SDS011;4472;52.092;9.820;2023-04-29T15:53:39;9.63;;;7.27;;
8871;SDS011;4472;52.092;9.820;2023-04-29T15:56:28;9.00;;;7.07;;
8871;SDS011;4472;52.092;9.820;2023-04-29T15:59:16;8.80;;;7.53;;
8871;SDS011;4472;52.092;9.820;2023-04-29T16:02:04;8.67;;;6.67;;
8871;SDS011;4472;52.092;9.820;2023-04-29T16:04:55;8.67;;;7.77;;
8871;SDS011;4472;52.092;9.820;2023-04-29T16:07:42;9.17;;;7.53;;
8871;SDS011;4472;52.092;9.820;2023-04-29T16:10:30;7.90;;;7.10;;
8871;SDS011;4472;52.092;9.820;2023-04-29T16:13:17;8.03;;;7.17;;
8871;SDS011;4472;52.092;9.820;2023-04-29T16:16:05;8.67;;;7.63;;
8871;SDS011;4472;52.092;9.820;2023-04-29T16:18:54;9.23;;;7.20;;
8871;SDS011;4472;52.092;9.820;2023-04-29T16:21:41;9.57;;;7.50;;
8871;SDS011;4472;52.092;9.820;2023-04-29T16:24:29;11.10;;;7.43;;
8871;SDS011;4472;52.092;9.820;2023-04-29T16:27:17;6.73;;;6.03;;
8871;SDS011;4472;52.092;9.820;2023-04-29T16:30:05;7.50;;;6.70;;
8871;SDS011;4472;52.092;9.820;2023-04-29T16:32:55;9.53;;;6.47;;
8871;SDS011;4472;52.092;9.820;2023-04-29T16:35:43;6.83;;;6.17;;
8871;SDS011;4472;52.092;9.820;2023-04-29T16:38:31;6.80;;;6.10;;
8871;SDS011;4472;52.092;9.820;2023-04-29T16:41:18;6.23;;;5.63;;
8871;SDS011;4472;52.092;9.820;2023-04-29T16:44:06;6.00;;;5.30;;
8871;SDS011;4472;52.092;9.820;2023-04-29T16:46:54;6.77;;;5.67;;
8871;SDS011;4472;52.092;9.820;2023-04-29T16:49:41;10.20;;;5.43;;
8871;SDS011;4472;52.092;9.820;2023-04-29T16:52:30;9.67;;;5.57;;
8871;SDS011;4472;52.092;9.820;2023-04-29T16:55:18;7.63;;;5.43;;
8871;SDS011;4472;52.092;9.820;2023-04-29T16:58:05;6.57;;;5.87;;
8871;SDS011;4472;52.092;9.820;2023-04-29T17:00:53;8.37;;;6.00;;
8871;SDS011;4472;52.092;9.820;2023-04-29T17:03:41;12.93;;;7.23;;